sensor_id;sensor_type;location;lat;lon;timestamp;pressure;altitude;pressure_sealevel;temperature;humidity
23619;BME280;18207;32.078;34.818;2023-08-01T00:00:52;99908.78;;;33.61;46.96
23619;BME280;18207;32.078;34.818;2023-08-01T00:03:23;99903.88;;;33.62;47.34
23619;BME280;18207;32.078;34.818;2023-08-01T00:05:53;99905.13;;;33.61;47.50
23619;BME280;18207;32.078;34.818;2023-08-01T00:08:23;99910.81;;;33.61;46.87
23619;BME280;18207;32.078;34.818;2023-08-01T00:10:55;99909.56;;;33.62;47.09
23619;BME280;18207;32.078;34.818;2023-08-01T00:13:26;99901.91;;;33.59;47.28
23619;BME280;18207;32.078;34.818;2023-08-01T00:15:56;99906.78;;;33.58;47.27
23619;BME280;18207;32.078;34.818;2023-08-01T00:18:29;99908.84;;;33.58;47.27
23619;BME280;18207;32.078;34.818;2023-08-01T00:20:59;99910.88;;;33.57;47.64
23619;BME280;18207;32.078;34.818;2023-08-01T00:23:29;99915.78;;;33.57;47.62
23619;BME280;18207;32.078;34.818;2023-08-01T00:26:01;99912.94;;;33.57;47.51
23619;BME280;18207;32.078;34.818;2023-08-01T00:28:31;99914.19;;;33.56;47.49
23619;BME280;18207;32.078;34.818;2023-08-01T00:31:04;99914.97;;;33.56;47.59
23619;BME280;18207;32.078;34.818;2023-08-01T00:33:35;99913.38;;;33.55;47.07
23619;BME280;18207;32.078;34.818;2023-08-01T00:36:05;99914.19;;;33.56;47.39
23619;BME280;18207;32.078;34.818;2023-08-01T00:38:37;99914.19;;;33.56;47.13
23619;BME280;18207;32.078;34.818;2023-08-01T00:41:11;99911.34;;;33.56;47.31
23619;BME280;18207;32.078;34.818;2023-08-01T00:43:41;99913.81;;;33.54;47.62
23619;BME280;18207;32.078;34.818;2023-08-01T00:46:12;99914.28;;;33.52;47.31
23619;BME280;18207;32.078;34.818;2023-08-01T00:48:42;99912.31;;;33.49;47.66
23619;BME280;18207;32.078;34.818;2023-08-01T00:51:13;99911.16;;;33.47;48.09
23619;BME280;18207;32.078;34.818;2023-08-01T00:53:43;99915.66;;;33.44;48.08
23619;BME280;18207;32.078;34.818;2023-08-01T00:56:17;99913.72;;;33.41;47.98
23619;BME280;18207;32.078;34.818;2023-08-01T00:58:47;99913.34;;;33.39;47.78
23619;BME280;18207;32.078;34.818;2023-08-01T01:01:18;99915.84;;;33.37;47.53
23619;BME280;18207;32.078;34.818;2023-08-01T01:03:48;99917.91;;;33.37;47.61
23619;BME280;18207;32.078;34.818;2023-08-01T01:06:25;99919.16;;;33.36;47.48
23619;BME280;18207;32.078;34.818;2023-08-01T01:08:56;99924.47;;;33.34;47.91
23619;BME280;18207;32.078;34.818;2023-08-01T01:11:28;99922.41;;;33.34;48.23
23619;BME280;18207;32.078;34.818;2023-08-01T01:13:59;99914.69;;;33.35;47.51
23619;BME280;18207;32.078;34.818;2023-08-01T01:16:29;99923.69;;;33.33;48.02
23619;BME280;18207;32.078;34.818;2023-08-01T01:18:59;99922.50;;;33.31;48.16
23619;BME280;18207;32.078;34.818;2023-08-01T01:21:33;99920.97;;;33.26;48.14
23619;BME280;18207;32.078;34.818;2023-08-01T01:24:07;99920.28;;;33.22;48.38
23619;BME280;18207;32.078;34.818;2023-08-01T01:26:41;99923.56;;;33.21;48.08
23619;BME280;18207;32.078;34.818;2023-08-01T01:29:13;99923.56;;;33.21;47.73
23619;BME280;18207;32.078;34.818;2023-08-01T01:31:45;99922.75;;;33.20;48.36
23619;BME280;18207;32.078;34.818;2023-08-01T01:34:16;99922.75;;;33.20;48.28
23619;BME280;18207;32.078;34.818;2023-08-01T01:36:47;99924.38;;;33.21;47.68
23619;BME280;18207;32.078;34.818;2023-08-01T01:39:18;99919.47;;;33.22;48.34
23619;BME280;18207;32.078;34.818;2023-08-01T01:41:48;99915.38;;;33.23;47.91
23619;BME280;18207;32.078;34.818;2023-08-01T01:44:19;99923.13;;;33.22;47.81
23619;BME280;18207;32.078;34.818;2023-08-01T01:46:49;99925.97;;;33.22;48.26
23619;BME280;18207;32.078;34.818;2023-08-01T01:49:19;99930.06;;;33.21;47.77
23619;BME280;18207;32.078;34.818;2023-08-01T01:51:52;99930.50;;;33.20;48.33
23619;BME280;18207;32.078;34.818;2023-08-01T01:54:25;99926.47;;;33.17;48.37
23619;BME280;18207;32.078;34.818;2023-08-01T01:56:55;99929.34;;;33.17;48.42
23619;BME280;18207;32.078;34.818;2023-08-01T01:59:25;99933.78;;;33.18;48.19
23619;BME280;18207;32.078;34.818;2023-08-01T02:01:55;99932.53;;;33.19;47.83
23619;BME280;18207;32.078;34.818;2023-08-01T02:04:26;99933.78;;;33.18;47.95
23619;BME280;18207;32.078;34.818;2023-08-01T02:06:58;99933.00;;;33.18;48.12
23619;BME280;18207;32.078;34.818;2023-08-01T02:09:28;99934.25;;;33.17;48.31
23619;BME280;18207;32.078;34.818;2023-08-01T02:11:58;99935.13;;;33.14;48.43
23619;BME280;18207;32.078;34.818;2023-08-01T02:14:27;99944.09;;;33.13;47.87
23619;BME280;18207;32.078;34.818;2023-08-01T02:16:58;99948.97;;;33.12;47.70
23619;BME280;18207;32.078;34.818;2023-08-01T02:19:28;99950.22;;;33.11;48.16
23619;BME280;18207;32.078;34.818;2023-08-01T02:22:00;99946.59;;;33.11;48.51
23619;BME280;18207;32.078;34.818;2023-08-01T02:24:30;99949.03;;;33.09;47.88
23619;BME280;18207;32.078;34.818;2023-08-01T02:27:00;99949.88;;;33.09;48.58
23619;BME280;18207;32.078;34.818;2023-08-01T02:29:31;99948.63;;;33.10;48.16
23619;BME280;18207;32.078;34.818;2023-08-01T02:32:02;99950.66;;;33.10;48.52
23619;BME280;18207;32.078;34.818;2023-08-01T02:34:32;99953.53;;;33.10;48.26
23619;BME280;18207;32.078;34.818;2023-08-01T02:37:05;99953.53;;;33.10;48.02
23619;BME280;18207;32.078;34.818;2023-08-01T02:39:36;99951.50;;;33.07;48.65
23619;BME280;18207;32.078;34.818;2023-08-01T02:42:08;99955.59;;;33.06;48.63
23619;BME280;18207;32.078;34.818;2023-08-01T02:44:39;99956.06;;;33.04;48.23
23619;BME280;18207;32.078;34.818;2023-08-01T02:47:09;99961.38;;;33.02;47.94
23619;BME280;18207;32.078;34.818;2023-08-01T02:49:40;99959.78;;;33.01;48.02
23619;BME280;18207;32.078;34.818;2023-08-01T02:52:12;99958.16;;;33.00;48.67
23619;BME280;18207;32.078;34.818;2023-08-01T02:55:14;99966.00;;;32.96;48.53
23619;BME280;18207;32.078;34.818;2023-08-01T02:57:44;99957.88;;;32.95;49.01
23619;BME280;18207;32.078;34.818;2023-08-01T03:00:15;99963.56;;;32.95;48.21
23619;BME280;18207;32.078;34.818;2023-08-01T03:02:47;99952.16;;;32.95;48.79
23619;BME280;18207;32.078;34.818;2023-08-01T03:05:17;99959.47;;;32.96;48.00
23619;BME280;18207;32.078;34.818;2023-08-01T03:07:50;99970.44;;;32.97;48.69
23619;BME280;18207;32.078;34.818;2023-08-01T03:10:20;99968.84;;;32.96;48.69
23619;BME280;18207;32.078;34.818;2023-08-01T03:12:57;99974.97;;;32.95;48.31
23619;BME280;18207;32.078;34.818;2023-08-01T03:15:27;99970.94;;;32.92;48.24
23619;BME280;18207;32.078;34.818;2023-08-01T03:17:58;99968.91;;;32.93;48.06
23619;BME280;18207;32.078;34.818;2023-08-01T03:20:28;99966.84;;;32.93;48.77
23619;BME280;18207;32.078;34.818;2023-08-01T03:23:00;99961.53;;;32.95;48.12
23619;BME280;18207;32.078;34.818;2023-08-01T03:25:31;99970.88;;;32.96;48.84
23619;BME280;18207;32.078;34.818;2023-08-01T03:28:01;99975.69;;;32.99;48.54
23619;BME280;18207;32.078;34.818;2023-08-01T03:30:32;99985.84;;;33.00;48.17
23619;BME280;18207;32.078;34.818;2023-08-01T03:33:03;99982.56;;;33.01;48.71
23619;BME280;18207;32.078;34.818;2023-08-01T03:35:33;99982.13;;;33.03;48.67
23619;BME280;18207;32.078;34.818;2023-08-01T03:38:07;99990.22;;;33.04;48.55
23619;BME280;18207;32.078;34.818;2023-08-01T03:40:37;99991.00;;;33.05;48.51
23619;BME280;18207;32.078;34.818;2023-08-01T03:43:08;100001.63;;;33.04;48.64
23619;BME280;18207;32.078;34.818;2023-08-01T03:45:39;99999.56;;;33.05;48.14
23619;BME280;18207;32.078;34.818;2023-08-01T03:48:09;100003.22;;;33.05;48.42
23619;BME280;18207;32.078;34.818;2023-08-01T03:50:39;100006.06;;;33.05;48.45
23619;BME280;18207;32.078;34.818;2023-08-01T03:53:11;100001.16;;;33.06;48.19
23619;BME280;18207;32.078;34.818;2023-08-01T03:55:43;100010.16;;;33.04;48.78
23619;BME280;18207;32.078;34.818;2023-08-01T03:58:14;100011.84;;;33.02;48.17
23619;BME280;18207;32.078;34.818;2023-08-01T04:00:44;100010.31;;;32.97;48.24
23619;BME280;18207;32.078;34.818;2023-08-01T04:03:14;100014.81;;;32.95;48.79
23619;BME280;18207;32.078;34.818;2023-08-01T04:05:44;100016.09;;;32.94;48.46
23619;BME280;18207;32.078;34.818;2023-08-01T04:08:17;100028.72;;;32.93;48.64
23619;BME280;18207;32.078;34.818;2023-08-01T04:10:48;100031.97;;;32.91;49.08
23619;BME280;18207;32.078;34.818;2023-08-01T04:13:18;100031.66;;;32.89;48.95
23619;BME280;18207;32.078;34.818;2023-08-01T04:15:48;100031.66;;;32.89;48.82
23619;BME280;18207;32.078;34.818;2023-08-01T04:18:19;100041.75;;;32.90;49.15
23619;BME280;18207;32.078;34.818;2023-08-01T04:20:49;100039.72;;;32.91;48.70
23619;BME280;18207;32.078;34.818;2023-08-01T04:23:21;100041.75;;;32.90;49.11
23619;BME280;18207;32.078;34.818;2023-08-01T04:25:51;100044.59;;;32.90;48.56
23619;BME280;18207;32.078;34.818;2023-08-01T04:28:21;100047.81;;;32.92;49.35
23619;BME280;18207;32.078;34.818;2023-08-01T04:30:52;100052.28;;;32.93;49.31
23619;BME280;18207;32.078;34.818;2023-08-01T04:33:22;100052.66;;;32.95;49.21
23619;BME280;18207;32.078;34.818;2023-08-01T04:35:53;100051.44;;;32.96;48.72
23619;BME280;18207;32.078;34.818;2023-08-01T04:38:25;100058.28;;;32.99;48.89
23619;BME280;18207;32.078;34.818;2023-08-01T04:40:55;100052.97;;;33.01;48.75
23619;BME280;18207;32.078;34.818;2023-08-01T04:43:25;100054.13;;;33.03;49.21
23619;BME280;18207;32.078;34.818;2023-08-01T04:45:55;100063.03;;;33.05;48.93
23619;BME280;18207;32.078;34.818;2023-08-01T04:48:25;100067.06;;;33.08;48.91
23619;BME280;18207;32.078;34.818;2023-08-01T04:50:56;100069.06;;;33.11;49.16
23619;BME280;18207;32.078;34.818;2023-08-01T04:53:27;100073.06;;;33.13;48.88
23619;BME280;18207;32.078;34.818;2023-08-01T04:55:58;100080.38;;;33.14;49.49
23619;BME280;18207;32.078;34.818;2023-08-01T04:58:28;100089.69;;;33.18;48.84
23619;BME280;18207;32.078;34.818;2023-08-01T05:00:58;100090.84;;;33.20;49.32
23619;BME280;18207;32.078;34.818;2023-08-01T05:03:29;100095.66;;;33.23;49.24
23619;BME280;18207;32.078;34.818;2023-08-01T05:05:59;100093.16;;;33.25;49.61
23619;BME280;18207;32.078;34.818;2023-08-01T05:08:31;100090.69;;;33.27;49.04
23619;BME280;18207;32.078;34.818;2023-08-01T05:11:01;100091.06;;;33.29;48.97
23619;BME280;18207;32.078;34.818;2023-08-01T05:13:31;100086.09;;;33.33;49.01
23619;BME280;18207;32.078;34.818;2023-08-01T05:16:01;100103.53;;;33.35;49.81
23619;BME280;18207;32.078;34.818;2023-08-01T05:18:32;100100.63;;;33.39;49.75
23619;BME280;18207;32.078;34.818;2023-08-01T05:21:03;100092.44;;;33.41;48.97
23619;BME280;18207;32.078;34.818;2023-08-01T05:23:35;100086.66;;;33.44;49.71
23619;BME280;18207;32.078;34.818;2023-08-01T05:26:05;100089.47;;;33.48;49.15
23619;BME280;18207;32.078;34.818;2023-08-01T05:28:35;100094.72;;;33.49;49.22
23619;BME280;18207;32.078;34.818;2023-08-01T05:31:05;100087.69;;;33.54;49.37
23619;BME280;18207;32.078;34.818;2023-08-01T05:33:36;100089.66;;;33.57;49.47
23619;BME280;18207;32.078;34.818;2023-08-01T05:36:06;100095.31;;;33.60;49.67
23619;BME280;18207;32.078;34.818;2023-08-01T05:38:38;100082.69;;;33.61;49.74
23619;BME280;18207;32.078;34.818;2023-08-01T05:41:08;100088.72;;;33.63;49.10
23619;BME280;18207;32.078;34.818;2023-08-01T05:43:38;100091.53;;;33.67;49.15
23619;BME280;18207;32.078;34.818;2023-08-01T05:46:08;100086.97;;;33.69;49.30
23619;BME280;18207;32.078;34.818;2023-08-01T05:48:38;100092.59;;;33.73;49.10
23619;BME280;18207;32.078;34.818;2023-08-01T05:51:08;100099.03;;;33.77;49.48
23619;BME280;18207;32.078;34.818;2023-08-01T05:53:42;100096.88;;;33.81;49.46
23619;BME280;18207;32.078;34.818;2023-08-01T05:56:13;100102.09;;;33.86;48.98
23619;BME280;18207;32.078;34.818;2023-08-01T05:58:44;100097.91;;;33.90;49.61
23619;BME280;18207;32.078;34.818;2023-08-01T06:01:17;100094.50;;;33.95;49.51
23619;BME280;18207;32.078;34.818;2023-08-01T06:03:48;100093.19;;;34.00;49.39
23619;BME280;18207;32.078;34.818;2023-08-01T06:06:18;100101.66;;;34.03;49.20
23619;BME280;18207;32.078;34.818;2023-08-01T06:08:50;100095.91;;;34.06;49.34
23619;BME280;18207;32.078;34.818;2023-08-01T06:11:21;100105.56;;;34.12;49.33
23619;BME280;18207;32.078;34.818;2023-08-01T06:13:52;100103.44;;;34.16;48.73
23619;BME280;18207;32.078;34.818;2023-08-01T06:16:22;100103.69;;;34.22;48.57
23619;BME280;18207;32.078;34.818;2023-08-01T06:18:54;100097.44;;;34.27;48.53
23619;BME280;18207;32.078;34.818;2023-08-01T06:21:24;100097.38;;;34.30;49.04
23619;BME280;18207;32.078;34.818;2023-08-01T06:23:57;100102.19;;;34.33;48.59
23619;BME280;18207;32.078;34.818;2023-08-01T06:26:28;100096.03;;;34.35;48.40
23619;BME280;18207;32.078;34.818;2023-08-01T06:28:59;100100.84;;;34.38;48.68
23619;BME280;18207;32.078;34.818;2023-08-01T06:31:29;100110.94;;;34.42;48.48
23619;BME280;18207;32.078;34.818;2023-08-01T06:34:00;100103.53;;;34.45;48.75
23619;BME280;18207;32.078;34.818;2023-08-01T06:36:30;100114.41;;;34.50;48.86
23619;BME280;18207;32.078;34.818;2023-08-01T06:39:02;100106.56;;;34.54;48.17
23619;BME280;18207;32.078;34.818;2023-08-01T06:41:33;100104.47;;;34.58;47.92
23619;BME280;18207;32.078;34.818;2023-08-01T06:44:04;100101.03;;;34.63;47.81
23619;BME280;18207;32.078;34.818;2023-08-01T06:46:34;100104.63;;;34.67;48.40
23619;BME280;18207;32.078;34.818;2023-08-01T06:49:04;100104.53;;;34.70;48.06
23619;BME280;18207;32.078;34.818;2023-08-01T06:51:34;100104.78;;;34.76;48.30
23619;BME280;18207;32.078;34.818;2023-08-01T06:54:07;100103.00;;;34.82;47.83
23619;BME280;18207;32.078;34.818;2023-08-01T06:56:38;100106.56;;;34.86;48.23
23619;BME280;18207;32.078;34.818;2023-08-01T06:59:08;100113.78;;;34.90;47.64
23619;BME280;18207;32.078;34.818;2023-08-01T07:01:38;100100.56;;;34.96;47.65
23619;BME280;18207;32.078;34.818;2023-08-01T07:04:11;100110.63;;;35.00;48.01
23619;BME280;18207;32.078;34.818;2023-08-01T07:06:41;100102.81;;;35.04;47.75
23619;BME280;18207;32.078;34.818;2023-08-01T07:09:12;100106.38;;;35.08;47.94
23619;BME280;18207;32.078;34.818;2023-08-01T07:11:43;100100.94;;;35.14;47.95
23619;BME280;18207;32.078;34.818;2023-08-01T07:14:12;100100.34;;;35.19;47.47
23619;BME280;18207;32.078;34.818;2023-08-01T07:16:43;100108.41;;;35.24;47.94
23619;BME280;18207;32.078;34.818;2023-08-01T07:19:13;100103.72;;;35.30;47.79
23619;BME280;18207;32.078;34.818;2023-08-01T07:21:43;100098.72;;;35.34;47.83
23619;BME280;18207;32.078;34.818;2023-08-01T07:24:18;100096.53;;;35.38;47.46
23619;BME280;18207;32.078;34.818;2023-08-01T07:26:48;100095.66;;;35.41;47.49
23619;BME280;18207;32.078;34.818;2023-08-01T07:29:18;100088.56;;;35.45;47.94
23619;BME280;18207;32.078;34.818;2023-08-01T07:31:48;100093.38;;;35.48;47.28
23619;BME280;18207;32.078;34.818;2023-08-01T07:34:19;100093.72;;;35.50;47.22
23619;BME280;18207;32.078;34.818;2023-08-01T07:36:49;100092.84;;;35.53;47.63
23619;BME280;18207;32.078;34.818;2023-08-01T07:39:21;100100.53;;;35.56;47.67
23619;BME280;18207;32.078;34.818;2023-08-01T07:41:52;100096.75;;;35.59;47.55
23619;BME280;18207;32.078;34.818;2023-08-01T07:44:22;100101.56;;;35.62;47.71
23619;BME280;18207;32.078;34.818;2023-08-01T07:46:53;100092.53;;;35.64;47.40
23619;BME280;18207;32.078;34.818;2023-08-01T07:49:23;100090.00;;;35.66;46.95
23619;BME280;18207;32.078;34.818;2023-08-01T07:51:53;100103.88;;;35.67;47.23
23619;BME280;18207;32.078;34.818;2023-08-01T07:54:26;100092.31;;;35.71;46.77
23619;BME280;18207;32.078;34.818;2023-08-01T07:56:56;100102.50;;;35.72;47.15
23619;BME280;18207;32.078;34.818;2023-08-01T07:59:26;100095.41;;;35.76;46.87
23619;BME280;18207;32.078;34.818;2023-08-01T08:01:57;100100.56;;;35.81;47.01
23619;BME280;18207;32.078;34.818;2023-08-01T08:04:27;100097.16;;;35.86;47.10
23619;BME280;18207;32.078;34.818;2023-08-01T08:06:57;100101.50;;;35.90;46.60
23619;BME280;18207;32.078;34.818;2023-08-01T08:09:30;100095.31;;;35.92;46.48
23619;BME280;18207;32.078;34.818;2023-08-01T08:12:01;100090.41;;;35.92;46.61
23619;BME280;18207;32.078;34.818;2023-08-01T08:14:31;100096.47;;;35.94;46.78
23619;BME280;18207;32.078;34.818;2023-08-01T08:17:02;100094.31;;;35.98;46.57
23619;BME280;18207;32.078;34.818;2023-08-01T08:19:32;100092.16;;;36.02;46.59
23619;BME280;18207;32.078;34.818;2023-08-01T08:22:02;100101.44;;;36.06;46.53
23619;BME280;18207;32.078;34.818;2023-08-01T08:24:35;100096.41;;;36.10;47.18
23619;BME280;18207;32.078;34.818;2023-08-01T08:27:06;100098.00;;;36.11;47.01
23619;BME280;18207;32.078;34.818;2023-08-01T08:29:37;100095.47;;;36.13;46.77
23619;BME280;18207;32.078;34.818;2023-08-01T08:32:08;100099.50;;;36.16;46.75
23619;BME280;18207;32.078;34.818;2023-08-01T08:34:38;100106.81;;;36.17;46.96
23619;BME280;18207;32.078;34.818;2023-08-01T08:37:09;100105.09;;;36.19;46.62
23619;BME280;18207;32.078;34.818;2023-08-01T08:39:41;100109.56;;;36.20;46.92
23619;BME280;18207;32.078;34.818;2023-08-01T08:42:12;100101.78;;;36.21;46.57
23619;BME280;18207;32.078;34.818;2023-08-01T08:44:43;100096.41;;;36.23;46.94
23619;BME280;18207;32.078;34.818;2023-08-01T08:47:17;100092.28;;;36.24;46.75
23619;BME280;18207;32.078;34.818;2023-08-01T08:49:50;100094.66;;;36.25;46.73
23619;BME280;18207;32.078;34.818;2023-08-01T08:52:20;100097.09;;;36.27;46.68
23619;BME280;18207;32.078;34.818;2023-08-01T08:54:53;100100.75;;;36.27;46.48
23619;BME280;18207;32.078;34.818;2023-08-01T08:57:25;100100.75;;;36.27;46.26
23619;BME280;18207;32.078;34.818;2023-08-01T08:59:57;100102.81;;;36.27;46.55
23619;BME280;18207;32.078;34.818;2023-08-01T09:02:28;100101.22;;;36.26;46.34
23619;BME280;18207;32.078;34.818;2023-08-01T09:04:59;100100.41;;;36.25;46.12
23619;BME280;18207;32.078;34.818;2023-08-01T09:07:33;100096.28;;;36.26;46.21
23619;BME280;18207;32.078;34.818;2023-08-01T09:10:09;100095.81;;;36.28;45.66
23619;BME280;18207;32.078;34.818;2023-08-01T09:12:42;100103.59;;;36.27;45.95
23619;BME280;18207;32.078;34.818;2023-08-01T09:15:12;100106.00;;;36.29;46.29
23619;BME280;18207;32.078;34.818;2023-08-01T09:17:52;100099.38;;;36.32;46.10
23619;BME280;18207;32.078;34.818;2023-08-01T09:20:24;100099.72;;;36.34;45.83
23619;BME280;18207;32.078;34.818;2023-08-01T09:22:55;100097.19;;;36.36;46.29
23619;BME280;18207;32.078;34.818;2023-08-01T09:25:33;100091.34;;;36.39;45.80
23619;BME280;18207;32.078;34.818;2023-08-01T09:28:15;100098.22;;;36.42;46.31
23619;BME280;18207;32.078;34.818;2023-08-01T09:30:50;100096.06;;;36.46;45.82
23619;BME280;18207;32.078;34.818;2023-08-01T09:33:20;100097.69;;;36.47;45.79
23619;BME280;18207;32.078;34.818;2023-08-01T09:35:51;100091.00;;;36.50;46.13
23619;BME280;18207;32.078;34.818;2023-08-01T09:38:22;100095.00;;;36.52;45.86
23619;BME280;18207;32.078;34.818;2023-08-01T09:40:55;100099.47;;;36.53;46.13
23619;BME280;18207;32.078;34.818;2023-08-01T09:43:33;100093.66;;;36.57;45.89
23619;BME280;18207;32.078;34.818;2023-08-01T09:46:06;100087.13;;;36.56;45.93
23619;BME280;18207;32.078;34.818;2023-08-01T09:48:37;100092.84;;;36.56;46.07
23619;BME280;18207;32.078;34.818;2023-08-01T09:51:09;100094.09;;;36.55;45.32
23619;BME280;18207;32.078;34.818;2023-08-01T09:53:48;100096.19;;;36.55;45.26
23619;BME280;18207;32.078;34.818;2023-08-01T09:56:25;100090.09;;;36.53;45.57
23619;BME280;18207;32.078;34.818;2023-08-01T09:58:56;100090.88;;;36.53;45.51
23619;BME280;18207;32.078;34.818;2023-08-01T10:01:32;100098.34;;;36.51;45.33
23619;BME280;18207;32.078;34.818;2023-08-01T10:04:04;100099.59;;;36.50;45.16
23619;BME280;18207;32.078;34.818;2023-08-01T10:06:41;100095.59;;;36.47;45.59
23619;BME280;18207;32.078;34.818;2023-08-01T10:09:14;100096.88;;;36.46;45.32
23619;BME280;18207;32.078;34.818;2023-08-01T10:11:48;100096.06;;;36.46;45.32
23619;BME280;18207;32.078;34.818;2023-08-01T10:14:20;100093.22;;;36.46;45.57
23619;BME280;18207;32.078;34.818;2023-08-01T10:16:51;100093.53;;;36.48;45.63
23619;BME280;18207;32.078;34.818;2023-08-01T10:19:22;100090.66;;;36.48;45.36
23619;BME280;18207;32.078;34.818;2023-08-01T10:21:53;100093.53;;;36.48;44.91
23619;BME280;18207;32.078;34.818;2023-08-01T10:24:26;100091.13;;;36.46;45.13
23619;BME280;18207;32.078;34.818;2023-08-01T10:27:12;100100.53;;;36.47;45.23
23619;BME280;18207;32.078;34.818;2023-08-01T10:29:43;100090.66;;;36.48;45.30
23619;BME280;18207;32.078;34.818;2023-08-01T10:32:14;100087.72;;;36.51;45.01
23619;BME280;18207;32.078;34.818;2023-08-01T10:34:51;100095.81;;;36.53;45.00
23619;BME280;18207;32.078;34.818;2023-08-01T10:37:22;100079.91;;;36.52;45.45
23619;BME280;18207;32.078;34.818;2023-08-01T10:39:59;100079.13;;;36.51;45.19
23619;BME280;18207;32.078;34.818;2023-08-01T10:42:40;100079.56;;;36.50;45.36
23619;BME280;18207;32.078;34.818;2023-08-01T10:45:21;100082.41;;;36.50;44.68
23619;BME280;18207;32.078;34.818;2023-08-01T10:48:07;100085.75;;;36.48;45.23
23619;BME280;18207;32.078;34.818;2023-08-01T10:50:38;100085.41;;;36.46;44.79
23619;BME280;18207;32.078;34.818;2023-08-01T10:53:13;100080.50;;;36.47;45.30
23619;BME280;18207;32.078;34.818;2023-08-01T10:55:46;100071.91;;;36.47;45.32
23619;BME280;18207;32.078;34.818;2023-08-01T10:58:18;100072.69;;;36.47;45.24
23619;BME280;18207;32.078;34.818;2023-08-01T11:00:58;100069.84;;;36.47;44.97
23619;BME280;18207;32.078;34.818;2023-08-01T11:03:35;100072.69;;;36.47;44.73
23619;BME280;18207;32.078;34.818;2023-08-01T11:06:05;100072.34;;;36.45;44.96
23619;BME280;18207;32.078;34.818;2023-08-01T11:08:37;100070.31;;;36.46;45.05
23619;BME280;18207;32.078;34.818;2023-08-01T11:11:12;100066.19;;;36.47;44.82
23619;BME280;18207;32.078;34.818;2023-08-01T11:13:53;100063.31;;;36.47;44.74
23619;BME280;18207;32.078;34.818;2023-08-01T11:16:24;100061.72;;;36.46;44.98
23619;BME280;18207;32.078;34.818;2023-08-01T11:18:56;100064.22;;;36.44;44.94
23619;BME280;18207;32.078;34.818;2023-08-01T11:21:29;100061.38;;;36.44;44.55
23619;BME280;18207;32.078;34.818;2023-08-01T11:23:59;100069.56;;;36.42;45.29
23619;BME280;18207;32.078;34.818;2023-08-01T11:26:29;100061.78;;;36.42;45.13
23619;BME280;18207;32.078;34.818;2023-08-01T11:29:03;100068.44;;;36.39;44.83
23619;BME280;18207;32.078;34.818;2023-08-01T11:31:34;100060.28;;;36.38;45.14
23619;BME280;18207;32.078;34.818;2023-08-01T11:34:04;100056.28;;;36.35;44.78
23619;BME280;18207;32.078;34.818;2023-08-01T11:36:36;100058.38;;;36.35;45.30
23619;BME280;18207;32.078;34.818;2023-08-01T11:39:07;100056.78;;;36.34;44.75
23619;BME280;18207;32.078;34.818;2023-08-01T11:41:38;100047.03;;;36.31;45.19
23619;BME280;18207;32.078;34.818;2023-08-01T11:44:10;100051.16;;;36.30;45.05
23619;BME280;18207;32.078;34.818;2023-08-01T11:46:40;100047.47;;;36.30;44.84
23619;BME280;18207;32.078;34.818;2023-08-01T11:49:14;100048.31;;;36.30;45.14
23619;BME280;18207;32.078;34.818;2023-08-01T11:51:45;100053.69;;;36.28;44.93
23619;BME280;18207;32.078;34.818;2023-08-01T11:54:16;100041.41;;;36.28;44.96
23619;BME280;18207;32.078;34.818;2023-08-01T11:56:46;100057.00;;;36.27;45.19
23619;BME280;18207;32.078;34.818;2023-08-01T11:59:19;100050.47;;;36.26;45.14
23619;BME280;18207;32.078;34.818;2023-08-01T12:01:49;100048.06;;;36.25;44.69
23619;BME280;18207;32.078;34.818;2023-08-01T12:04:26;100046.47;;;36.24;44.81
23619;BME280;18207;32.078;34.818;2023-08-01T12:06:56;100049.34;;;36.24;44.55
23619;BME280;18207;32.078;34.818;2023-08-01T12:09:26;100049.34;;;36.24;45.22
23619;BME280;18207;32.078;34.818;2023-08-01T12:12:00;100050.59;;;36.23;45.05
23619;BME280;18207;32.078;34.818;2023-08-01T12:14:33;100046.94;;;36.22;45.11
23619;BME280;18207;32.078;34.818;2023-08-01T12:17:05;100045.34;;;36.21;44.45
23619;BME280;18207;32.078;34.818;2023-08-01T12:19:34;100051.50;;;36.20;44.73
23619;BME280;18207;32.078;34.818;2023-08-01T12:22:05;100037.19;;;36.20;44.75
23619;BME280;18207;32.078;34.818;2023-08-01T12:24:35;100039.63;;;36.21;44.42
23619;BME280;18207;32.078;34.818;2023-08-01T12:27:07;100040.41;;;36.22;44.45
23619;BME280;18207;32.078;34.818;2023-08-01T12:29:39;100033.88;;;36.21;44.51
23619;BME280;18207;32.078;34.818;2023-08-01T12:32:10;100027.34;;;36.21;44.51
23619;BME280;18207;32.078;34.818;2023-08-01T12:34:41;100039.63;;;36.21;44.98
23619;BME280;18207;32.078;34.818;2023-08-01T12:37:10;100036.28;;;36.23;44.68
23619;BME280;18207;32.078;34.818;2023-08-01T12:39:40;100035.50;;;36.22;44.97
23619;BME280;18207;32.078;34.818;2023-08-01T12:42:10;100039.63;;;36.21;44.44
23619;BME280;18207;32.078;34.818;2023-08-01T12:44:42;100025.75;;;36.20;44.29
23619;BME280;18207;32.078;34.818;2023-08-01T12:47:13;100035.59;;;36.19;44.40
23619;BME280;18207;32.078;34.818;2023-08-01T12:49:43;100028.25;;;36.18;44.47
23619;BME280;18207;32.078;34.818;2023-08-01T12:52:23;100028.25;;;36.18;44.39
23619;BME280;18207;32.078;34.818;2023-08-01T12:54:53;100032.06;;;36.15;44.57
23619;BME280;18207;32.078;34.818;2023-08-01T12:57:24;100029.19;;;36.15;44.70
23619;BME280;18207;32.078;34.818;2023-08-01T13:00:00;100028.38;;;36.14;44.28
23619;BME280;18207;32.078;34.818;2023-08-01T13:02:30;100027.59;;;36.14;44.72
23619;BME280;18207;32.078;34.818;2023-08-01T13:05:01;100023.91;;;36.13;44.44